FCBB/BZV METAR and TAF weather

Enter ICAO airport designator
Station Type Date Time Source
FCBB METAR 2019/05/27 09:00 UTC NOAA

FCBB 270900Z 22008KT 190V260 8000 BKN016 27/22 Q1014 NOSIG


Station Type Date Time Source
FCBB Decoded METAR 2019/05/27 09:00 UTC NOAA

Brazzaville / Maya-Maya, Congo, Republic of the (FCBB) 04-15S 015-15E 316M
May 27, 2019 - 05:00 AM EDT / 2019.05.27 0900 UTC
Wind: from the SW (220 degrees) at 9 MPH (8 KT) (direction variable):0
Visibility: 4 mile(s):0
Sky conditions: mostly cloudy
Temperature: 80 F (27 C)
Dew Point: 71 F (22 C)
Relative Humidity: 74%
Pressure (altimeter): 29.94 in. Hg (1014 hPa)
ob: FCBB 270900Z 22008KT 190V260 8000 BKN016 27/22 Q1014 NOSIG
cycle: 9

Station Type Date Time Source
FCBB TAF 2019/05/27 06:12 UTC NOAA

TAF TAF FCBB 270500Z 2706/2812 26004KT 9000 SCT018
BECMG 2712/2714 FEW020 FEW030CB
BECMG 2719/2721 SCT018

Example: see airport list